Time;durP1;ratioP1;P1;durP2;ratioP2;P2;SDS_P1;SDS_P2;PMS_P1;PMS_P2;Temp;Humidity;BMP_temperature;BMP_pressure;BME280_temperature;BME280_humidity;BME280_pressure;Samples;Min_cycle;Max_cycle;Signal;HPM_P1;HPM_P2
2024/02/13 00:00:12;;;;;;;1.55;0.70;;;22.80;50.60;;;;;;5079595;28;20560;-62
2024/02/13 00:02:39;;;;;;;1.17;0.80;;;22.90;50.50;;;;;;5080333;28;20484;-63
2024/02/13 00:05:07;;;;;;;1.00;0.68;;;23.00;50.50;;;;;;5078081;28;20082;-63
2024/02/13 00:07:36;;;;;;;0.85;0.70;;;23.00;50.40;;;;;;5076723;28;20032;-63
2024/02/13 00:10:03;;;;;;;1.10;0.80;;;23.00;50.40;;;;;;5079601;28;20051;-63
2024/02/13 00:12:29;;;;;;;1.35;0.77;;;23.00;50.30;;;;;;5079596;28;20023;-63
2024/02/13 00:14:55;;;;;;;1.45;0.70;;;23.10;50.30;;;;;;5073454;28;20191;-63
2024/02/13 00:17:23;;;;;;;1.10;0.60;;;23.10;50.30;;;;;;5078176;28;20374;-62
2024/02/13 00:19:49;;;;;;;0.70;0.60;;;23.20;50.40;;;;;;5095550;28;20012;-62
2024/02/13 00:22:15;;;;;;;0.50;0.50;;;23.30;50.60;;;;;;5079016;28;20548;-63
2024/02/13 00:24:43;;;;;;;0.90;0.60;;;23.30;50.70;;;;;;5087129;28;20064;-62
2024/02/13 00:27:09;;;;;;;0.55;0.50;;;23.50;50.80;;;;;;5092228;28;20020;-62
2024/02/13 00:29:35;;;;;;;0.70;0.47;;;23.50;50.80;;;;;;5092261;28;20075;-63
2024/02/13 00:32:00;;;;;;;0.73;0.50;;;23.60;50.90;;;;;;5090690;28;20035;-62
2024/02/13 00:34:26;;;;;;;0.75;0.70;;;23.70;50.90;;;;;;5088644;28;20495;-63
2024/02/13 00:36:52;;;;;;;0.65;0.50;;;23.70;50.90;;;;;;5072216;28;20027;-64
2024/02/13 00:39:18;;;;;;;0.77;0.50;;;23.80;51.00;;;;;;5091139;28;20020;-62
2024/02/13 00:41:44;;;;;;;1.17;0.55;;;23.90;51.10;;;;;;5088260;28;20361;-62
2024/02/13 00:44:11;;;;;;;0.75;0.50;;;24.00;51.10;;;;;;5091313;28;20073;-62
2024/02/13 00:46:37;;;;;;;0.77;0.47;;;24.00;51.60;;;;;;5093549;28;20020;-63
2024/02/13 00:49:03;;;;;;;0.55;0.43;;;24.10;51.20;;;;;;5086047;28;20032;-65
2024/02/13 00:51:29;;;;;;;1.08;0.70;;;24.10;51.20;;;;;;5079213;28;20016;-62
2024/02/13 00:53:56;;;;;;;1.10;0.88;;;24.10;49.90;;;;;;5078454;28;20043;-62
2024/02/13 00:56:22;;;;;;;1.20;0.80;;;24.10;49.20;;;;;;5078436;28;20027;-63
2024/02/13 00:58:47;;;;;;;1.05;0.65;;;24.00;48.90;;;;;;5077701;28;20028;-62
2024/02/13 01:01:14;;;;;;;0.85;0.73;;;24.00;48.70;;;;;;5079086;28;20023;-63
2024/02/13 01:03:40;;;;;;;0.95;0.70;;;23.90;48.70;;;;;;5076728;28;20127;-62
2024/02/13 01:06:07;;;;;;;1.33;0.60;;;23.80;48.60;;;;;;5076227;28;20028;-63
2024/02/13 01:08:37;;;;;;;0.75;0.60;;;23.80;48.60;;;;;;5076003;28;20435;-62
2024/02/13 01:11:03;;;;;;;1.10;0.65;;;23.70;48.60;;;;;;5078295;28;20032;-62
2024/02/13 01:13:29;;;;;;;0.98;0.60;;;23.70;48.60;;;;;;5076702;28;20032;-63
2024/02/13 01:15:55;;;;;;;0.80;0.60;;;23.70;48.60;;;;;;5079405;28;20453;-63
2024/02/13 01:18:22;;;;;;;0.95;0.77;;;23.60;49.10;;;;;;5077565;28;20027;-63
2024/02/13 01:20:48;;;;;;;0.68;0.60;;;23.60;48.70;;;;;;5079775;28;20453;-63
2024/02/13 01:23:14;;;;;;;0.70;0.60;;;23.50;48.60;;;;;;5076985;28;20077;-63
2024/02/13 01:25:40;;;;;;;1.13;0.70;;;23.50;48.70;;;;;;5077511;28;20044;-63
2024/02/13 01:28:07;;;;;;;1.75;0.68;;;23.50;48.70;;;;;;5075607;28;20019;-63
2024/02/13 01:30:38;;;;;;;0.73;0.60;;;23.50;48.70;;;;;;5079614;28;20040;-63
2024/02/13 01:33:04;;;;;;;0.82;0.70;;;23.40;48.70;;;;;;5078455;28;20033;-63
2024/02/13 01:35:29;;;;;;;0.90;0.50;;;23.40;48.70;;;;;;5078175;28;20025;-65
2024/02/13 01:37:56;;;;;;;0.88;0.70;;;23.40;48.80;;;;;;5077835;28;20029;-64
2024/02/13 01:40:22;;;;;;;0.68;0.60;;;23.30;48.80;;;;;;5081710;28;20024;-64
2024/02/13 01:42:51;;;;;;;1.08;0.80;;;23.30;48.90;;;;;;5081177;28;20020;-65
2024/02/13 01:45:16;;;;;;;1.35;0.75;;;23.30;48.90;;;;;;5083486;28;20096;-64
2024/02/13 01:47:44;;;;;;;0.82;0.70;;;23.20;48.90;;;;;;5081836;28;20032;-64
2024/02/13 01:50:10;;;;;;;1.08;0.70;;;23.20;48.90;;;;;;5081639;28;20028;-64
2024/02/13 01:52:37;;;;;;;0.80;0.60;;;23.20;49.00;;;;;;5079989;28;20020;-65
2024/02/13 01:55:04;;;;;;;1.00;0.60;;;23.10;49.00;;;;;;5080962;28;20025;-64
2024/02/13 01:57:35;;;;;;;1.00;0.68;;;23.10;49.10;;;;;;5081126;28;20021;-64
2024/02/13 02:00:03;;;;;;;1.05;0.63;;;23.10;49.10;;;;;;5081331;28;20031;-64
2024/02/13 02:02:32;;;;;;;1.55;0.70;;;23.00;49.10;;;;;;5081986;28;20383;-64
2024/02/13 02:05:00;;;;;;;0.95;0.60;;;23.00;49.10;;;;;;5082493;28;20027;-65
2024/02/13 02:07:27;;;;;;;1.00;0.70;;;23.00;49.30;;;;;;5081614;28;20491;-64
2024/02/13 02:09:54;;;;;;;1.33;0.77;;;22.90;49.20;;;;;;5078965;28;20498;-65
2024/02/13 02:12:20;;;;;;;1.38;0.75;;;22.90;49.20;;;;;;5077938;28;20550;-64
2024/02/13 02:14:46;;;;;;;0.80;0.70;;;22.90;49.20;;;;;;5081311;28;20048;-63
2024/02/13 02:17:12;;;;;;;0.70;0.57;;;22.90;49.30;;;;;;5078566;28;20101;-63
2024/02/13 02:19:38;;;;;;;0.75;0.60;;;22.80;49.30;;;;;;5081170;28;20028;-63
2024/02/13 02:22:06;;;;;;;0.85;0.68;;;22.80;49.30;;;;;;5080359;28;20184;-63
2024/02/13 02:24:33;;;;;;;0.73;0.60;;;22.80;49.40;;;;;;5079503;28;20460;-65
2024/02/13 02:26:59;;;;;;;0.70;0.70;;;22.80;49.40;;;;;;5082044;28;20416;-64
2024/02/13 02:29:25;;;;;;;0.75;0.70;;;22.70;49.40;;;;;;5083221;28;20167;-64
2024/02/13 02:31:51;;;;;;;1.38;0.70;;;22.70;49.40;;;;;;5082309;28;20504;-64
2024/02/13 02:34:20;;;;;;;1.67;0.75;;;22.70;49.50;;;;;;5081581;28;20027;-64
2024/02/13 02:36:50;;;;;;;0.65;0.52;;;22.70;49.50;;;;;;5078879;28;20105;-65
2024/02/13 02:39:16;;;;;;;0.68;0.60;;;22.70;49.50;;;;;;5079270;28;20472;-65
2024/02/13 02:41:42;;;;;;;0.73;0.60;;;22.60;49.50;;;;;;5081770;28;20429;-64
2024/02/13 02:44:08;;;;;;;0.90;0.60;;;22.60;50.10;;;;;;5060071;28;20024;-63
2024/02/13 02:46:34;;;;;;;0.80;0.60;;;22.60;49.60;;;;;;5080526;28;20023;-62
2024/02/13 02:49:00;;;;;;;0.80;0.60;;;22.50;49.60;;;;;;5080609;28;20393;-62
2024/02/13 02:51:26;;;;;;;0.73;0.57;;;22.50;49.60;;;;;;5061676;28;20035;-63
2024/02/13 02:53:52;;;;;;;0.90;0.60;;;22.50;49.60;;;;;;5077420;28;20385;-63
2024/02/13 02:56:17;;;;;;;1.00;0.60;;;22.50;49.70;;;;;;5080414;28;20066;-63
2024/02/13 02:58:43;;;;;;;0.80;0.60;;;22.50;49.70;;;;;;5080127;28;20387;-62
2024/02/13 03:01:09;;;;;;;1.17;0.70;;;22.40;49.70;;;;;;5079423;28;20644;-63
2024/02/13 03:03:35;;;;;;;0.65;0.55;;;22.40;49.70;;;;;;5061375;28;20139;-63
2024/02/13 03:06:05;;;;;;;0.85;0.60;;;22.40;49.80;;;;;;5080237;28;20032;-63
2024/02/13 03:08:30;;;;;;;1.85;0.50;;;22.40;49.80;;;;;;5078177;28;20358;-62
2024/02/13 03:10:56;;;;;;;0.60;0.60;;;22.40;49.80;;;;;;5077212;28;20036;-63
2024/02/13 03:13:22;;;;;;;0.52;0.50;;;22.30;49.80;;;;;;5078540;28;20128;-63
2024/02/13 03:15:49;;;;;;;0.50;0.50;;;22.30;49.80;;;;;;5080661;28;20040;-63
2024/02/13 03:18:15;;;;;;;0.55;0.47;;;22.30;49.90;;;;;;5080153;28;20432;-63
2024/02/13 03:20:42;;;;;;;0.70;0.50;;;22.30;49.90;;;;;;5080185;28;20027;-63
2024/02/13 03:23:08;;;;;;;0.90;0.60;;;22.30;49.90;;;;;;5079913;28;20028;-64
2024/02/13 03:25:34;;;;;;;0.75;0.50;;;22.20;49.90;;;;;;5080155;28;20028;-61
2024/02/13 03:27:59;;;;;;;0.90;0.60;;;22.20;49.90;;;;;;5079032;28;20577;-62
2024/02/13 03:30:25;;;;;;;0.88;0.60;;;22.20;50.00;;;;;;5079452;28;20165;-62
2024/02/13 03:32:51;;;;;;;0.65;0.55;;;22.20;50.00;;;;;;5078133;28;20032;-62
2024/02/13 03:35:16;;;;;;;0.50;0.50;;;22.20;50.00;;;;;;5078602;28;20025;-63
2024/02/13 03:37:42;;;;;;;0.50;0.50;;;22.10;50.00;;;;;;5080944;28;20024;-63
2024/02/13 03:40:08;;;;;;;0.80;0.50;;;22.10;50.00;;;;;;5076555;28;20052;-62
2024/02/13 03:42:36;;;;;;;0.82;0.50;;;22.10;50.10;;;;;;5081418;28;20039;-62
2024/02/13 03:45:02;;;;;;;0.50;0.50;;;22.10;50.10;;;;;;5078393;28;20032;-63
2024/02/13 03:47:28;;;;;;;0.73;0.60;;;22.10;50.60;;;;;;5079444;28;20085;-63
2024/02/13 03:49:53;;;;;;;0.95;0.70;;;22.00;50.10;;;;;;5079355;28;20033;-63
2024/02/13 03:52:19;;;;;;;0.60;0.50;;;22.00;50.10;;;;;;5079437;28;20067;-63
2024/02/13 03:54:45;;;;;;;0.77;0.68;;;22.00;50.10;;;;;;5078818;28;20399;-62
2024/02/13 03:57:11;;;;;;;0.60;0.50;;;22.00;50.20;;;;;;5068895;28;20059;-63
2024/02/13 03:59:37;;;;;;;0.57;0.50;;;22.00;50.20;;;;;;5081703;28;20061;-63
2024/02/13 04:02:02;;;;;;;0.93;0.60;;;22.00;50.20;;;;;;5080204;28;20039;-63
2024/02/13 04:04:30;;;;;;;1.15;0.60;;;22.00;50.30;;;;;;5078839;28;20029;-63
2024/02/13 04:06:55;;;;;;;0.93;0.60;;;21.90;50.20;;;;;;5078782;28;20491;-63
2024/02/13 04:09:21;;;;;;;0.80;0.50;;;21.90;50.20;;;;;;5078182;28;20035;-63
2024/02/13 04:11:46;;;;;;;0.70;0.50;;;21.90;50.30;;;;;;5079955;28;20078;-63
2024/02/13 04:14:12;;;;;;;0.50;0.50;;;21.90;50.30;;;;;;5079264;28;20031;-63
2024/02/13 04:16:41;;;;;;;0.70;0.60;;;21.90;50.30;;;;;;5069973;28;20047;-63
2024/02/13 04:19:07;;;;;;;0.93;0.70;;;21.90;50.30;;;;;;5077951;28;20023;-63
2024/02/13 04:21:33;;;;;;;0.45;0.45;;;21.90;50.30;;;;;;5078325;28;20814;-63
2024/02/13 04:23:59;;;;;;;0.63;0.50;;;21.80;50.30;;;;;;5077185;28;20468;-63
2024/02/13 04:26:25;;;;;;;0.68;0.50;;;21.90;50.40;;;;;;5081467;28;20088;-62
2024/02/13 04:28:51;;;;;;;1.30;0.63;;;21.80;50.90;;;;;;5069618;28;20119;-63
2024/02/13 04:31:17;;;;;;;0.80;0.50;;;21.80;50.40;;;;;;5079536;28;20094;-62
2024/02/13 04:33:43;;;;;;;0.75;0.50;;;21.80;50.40;;;;;;5077385;28;20024;-63
2024/02/13 04:36:08;;;;;;;0.90;0.40;;;21.80;50.40;;;;;;5059618;28;20020;-63
2024/02/13 04:38:34;;;;;;;0.73;0.60;;;21.70;50.40;;;;;;5077977;28;20021;-63
2024/02/13 04:41:00;;;;;;;0.82;0.40;;;21.80;50.50;;;;;;5077298;28;20103;-63
2024/02/13 04:43:26;;;;;;;0.80;0.60;;;21.80;50.50;;;;;;5078607;28;20025;-63
2024/02/13 04:45:52;;;;;;;1.25;0.47;;;21.70;50.50;;;;;;5077437;28;20369;-63
2024/02/13 04:48:18;;;;;;;0.60;0.52;;;21.70;50.50;;;;;;5059798;28;20043;-63
2024/02/13 04:50:45;;;;;;;0.80;0.50;;;21.70;50.50;;;;;;5076017;28;20131;-63
2024/02/13 04:53:11;;;;;;;0.95;0.60;;;21.70;50.50;;;;;;5075655;28;20025;-63
2024/02/13 04:55:38;;;;;;;0.50;0.50;;;21.70;50.50;;;;;;5079221;28;20093;-63
2024/02/13 04:58:07;;;;;;;0.47;0.45;;;21.70;50.50;;;;;;5078603;28;20166;-63
2024/02/13 05:00:38;;;;;;;0.75;0.43;;;21.70;51.10;;;;;;5078949;28;20115;-63
2024/02/13 05:03:16;;;;;;;1.17;0.60;;;21.60;50.50;;;;;;5080359;28;20108;-63
2024/02/13 05:08:30;;;;;;;1.00;0.60;;;21.60;50.60;;;;;;5080020;28;20565;-62
2024/02/13 05:10:56;;;;;;;0.60;0.50;;;21.60;50.70;;;;;;5076507;28;20086;-63
2024/02/13 05:13:23;;;;;;;0.50;0.40;;;21.60;50.70;;;;;;5081144;28;20437;-62
2024/02/13 05:15:50;;;;;;;0.50;0.50;;;21.60;50.70;;;;;;5083003;28;20053;-61
2024/02/13 05:18:17;;;;;;;0.82;0.60;;;21.60;50.70;;;;;;5083735;28;20032;-62
2024/02/13 05:20:43;;;;;;;0.80;0.60;;;21.60;50.70;;;;;;5083592;28;20032;-62
2024/02/13 05:23:10;;;;;;;0.77;0.60;;;21.60;50.70;;;;;;5081295;28;20086;-62
2024/02/13 05:25:36;;;;;;;0.80;0.70;;;21.50;50.70;;;;;;5080341;28;20040;-61
2024/02/13 05:28:02;;;;;;;0.57;0.50;;;21.50;50.70;;;;;;5079051;28;20503;-61
2024/02/13 05:30:28;;;;;;;0.70;0.68;;;21.50;50.70;;;;;;5080517;28;20032;-63
2024/02/13 05:32:53;;;;;;;0.77;0.60;;;21.50;50.80;;;;;;5083727;28;20542;-62
2024/02/13 05:35:19;;;;;;;0.70;0.50;;;21.50;50.80;;;;;;5081441;28;20025;-62
2024/02/13 05:37:45;;;;;;;0.70;0.60;;;21.50;50.80;;;;;;5081468;28;20020;-62
2024/02/13 05:40:11;;;;;;;0.50;0.50;;;21.50;50.80;;;;;;5082130;28;20536;-62
2024/02/13 05:42:37;;;;;;;0.63;0.50;;;21.50;50.80;;;;;;5082469;28;20028;-62
2024/02/13 05:45:04;;;;;;;0.47;0.47;;;21.50;50.80;;;;;;5082820;28;20459;-63
2024/02/13 05:47:35;;;;;;;0.40;0.40;;;21.50;50.90;;;;;;5081409;28;20028;-62
2024/02/13 05:50:06;;;;;;;0.88;0.55;;;21.50;50.90;;;;;;5080821;28;20085;-62
2024/02/13 05:52:33;;;;;;;0.52;0.50;;;21.40;50.90;;;;;;5081863;28;20038;-63
2024/02/13 05:54:58;;;;;;;1.02;0.70;;;21.40;50.90;;;;;;5082464;28;20066;-61
2024/02/13 05:57:25;;;;;;;0.50;0.50;;;21.40;50.90;;;;;;5083056;28;20059;-62
2024/02/13 05:59:51;;;;;;;0.50;0.50;;;21.40;51.00;;;;;;5099446;28;20075;-61
2024/02/13 06:02:17;;;;;;;0.73;0.63;;;21.40;51.00;;;;;;5081766;28;20484;-62
2024/02/13 06:04:43;;;;;;;0.85;0.60;;;21.40;51.00;;;;;;5081874;28;20580;-61
2024/02/13 06:07:09;;;;;;;0.50;0.40;;;21.40;51.00;;;;;;5081660;28;20108;-61
2024/02/13 06:09:35;;;;;;;0.75;0.50;;;21.40;51.10;;;;;;5080690;28;20097;-61
2024/02/13 06:12:01;;;;;;;1.05;0.60;;;21.40;51.10;;;;;;5081769;28;20036;-62
2024/02/13 06:14:27;;;;;;;0.85;0.60;;;21.40;51.10;;;;;;5071656;28;20436;-62
2024/02/13 06:16:52;;;;;;;0.43;0.43;;;21.40;51.10;;;;;;5079919;28;20055;-64
2024/02/13 06:19:18;;;;;;;1.27;0.60;;;21.30;51.10;;;;;;5081591;28;20024;-64
2024/02/13 06:21:44;;;;;;;0.88;0.60;;;21.30;51.10;;;;;;5080002;28;20457;-64
2024/02/13 06:24:10;;;;;;;0.63;0.50;;;21.30;51.10;;;;;;5079561;28;20143;-64
2024/02/13 06:26:37;;;;;;;0.65;0.60;;;21.30;51.20;;;;;;5081092;28;20028;-64
2024/02/13 06:29:02;;;;;;;1.00;0.50;;;21.30;51.20;;;;;;5083033;28;20538;-64
2024/02/13 06:31:32;;;;;;;0.50;0.50;;;21.30;51.20;;;;;;5078254;28;20089;-65
2024/02/13 06:33:58;;;;;;;0.98;0.60;;;21.30;51.20;;;;;;5081171;28;20353;-65
2024/02/13 06:36:25;;;;;;;1.13;0.60;;;21.30;51.70;;;;;;5079642;28;20024;-65
2024/02/13 06:38:52;;;;;;;0.98;0.70;;;21.30;51.70;;;;;;5081766;28;20012;-65
2024/02/13 06:41:18;;;;;;;1.00;0.50;;;21.30;51.20;;;;;;5079118;28;20497;-65
2024/02/13 06:43:44;;;;;;;0.50;0.50;;;21.30;51.20;;;;;;5082181;28;20032;-64
2024/02/13 06:46:10;;;;;;;0.40;0.40;;;21.30;51.20;;;;;;5083082;28;20024;-65
2024/02/13 06:48:36;;;;;;;0.55;0.52;;;21.20;51.20;;;;;;5082221;28;20052;-64
2024/02/13 06:51:01;;;;;;;0.60;0.60;;;21.20;51.20;;;;;;5079329;28;20455;-65
2024/02/13 06:53:27;;;;;;;0.60;0.50;;;21.20;51.20;;;;;;5080256;28;20043;-65
2024/02/13 06:55:53;;;;;;;0.70;0.50;;;21.20;51.20;;;;;;5080477;28;20020;-65
2024/02/13 06:58:19;;;;;;;1.23;0.57;;;21.20;51.20;;;;;;5081921;28;20460;-65
2024/02/13 07:00:44;;;;;;;0.60;0.50;;;21.20;51.30;;;;;;5077412;28;20123;-64
2024/02/13 07:03:10;;;;;;;0.88;0.60;;;21.20;51.30;;;;;;5080421;28;20040;-65
2024/02/13 07:05:37;;;;;;;1.15;0.70;;;21.20;51.30;;;;;;5081142;28;20085;-63
2024/02/13 07:08:03;;;;;;;0.63;0.60;;;21.20;51.30;;;;;;5081080;28;20389;-63
2024/02/13 07:10:28;;;;;;;0.40;0.40;;;21.20;51.30;;;;;;5078932;28;20039;-63
2024/02/13 07:12:56;;;;;;;0.82;0.52;;;21.20;51.30;;;;;;5081102;28;20025;-63
2024/02/13 07:15:22;;;;;;;0.55;0.50;;;21.20;51.30;;;;;;5078663;28;20024;-63
2024/02/13 07:17:49;;;;;;;1.15;0.55;;;21.10;51.20;;;;;;5079359;28;20438;-63
2024/02/13 07:20:14;;;;;;;0.63;0.50;;;21.10;51.20;;;;;;5076860;28;20481;-63
2024/02/13 07:22:40;;;;;;;0.73;0.52;;;21.10;51.20;;;;;;5079481;28;20035;-63
2024/02/13 07:25:08;;;;;;;0.88;0.60;;;21.10;51.30;;;;;;5077737;28;20446;-64
2024/02/13 07:27:39;;;;;;;1.08;0.60;;;21.10;51.30;;;;;;5078766;28;20024;-64
2024/02/13 07:30:10;;;;;;;0.57;0.50;;;21.10;51.30;;;;;;5079232;28;20033;-63
2024/02/13 07:32:36;;;;;;;0.85;0.60;;;21.10;51.30;;;;;;5078887;28;20035;-64
2024/02/13 07:35:04;;;;;;;0.65;0.57;;;21.10;51.30;;;;;;5079837;28;20028;-64
2024/02/13 07:37:30;;;;;;;0.63;0.50;;;21.10;51.30;;;;;;5077722;28;20021;-64
2024/02/13 07:39:56;;;;;;;0.50;0.50;;;21.10;51.30;;;;;;5079739;28;20112;-64
2024/02/13 07:42:24;;;;;;;1.00;0.60;;;21.10;51.40;;;;;;5079591;28;20107;-64
2024/02/13 07:44:49;;;;;;;0.70;0.60;;;21.10;51.40;;;;;;5080976;28;20020;-64
2024/02/13 07:47:15;;;;;;;0.70;0.50;;;21.10;51.40;;;;;;5080836;28;20137;-64
2024/02/13 07:49:41;;;;;;;0.52;0.50;;;21.10;51.40;;;;;;5079825;28;20047;-64
2024/02/13 07:52:07;;;;;;;1.42;0.70;;;21.00;51.30;;;;;;5079413;28;20550;-63
2024/02/13 07:54:33;;;;;;;0.50;0.50;;;21.00;51.40;;;;;;5080016;28;20069;-64
2024/02/13 07:56:59;;;;;;;0.50;0.50;;;21.00;51.90;;;;;;5078275;28;20406;-64
2024/02/13 07:59:24;;;;;;;0.82;0.60;;;21.00;51.40;;;;;;5081287;28;20361;-64
2024/02/13 08:01:50;;;;;;;0.73;0.60;;;21.00;51.40;;;;;;5095391;28;20029;-64
2024/02/13 08:04:16;;;;;;;1.10;0.60;;;21.00;51.40;;;;;;5077291;28;20039;-63
2024/02/13 08:06:42;;;;;;;1.42;0.50;;;21.00;51.40;;;;;;5077349;28;20039;-64
2024/02/13 08:09:08;;;;;;;0.82;0.60;;;21.00;51.40;;;;;;5075923;28;20035;-64
2024/02/13 08:11:34;;;;;;;0.85;0.63;;;21.00;51.40;;;;;;5077621;28;20376;-64
2024/02/13 08:14:00;;;;;;;0.75;0.70;;;21.00;51.40;;;;;;5078692;28;20480;-64
2024/02/13 08:16:29;;;;;;;0.43;0.40;;;21.00;51.40;;;;;;5080212;28;20028;-65
2024/02/13 08:18:55;;;;;;;1.02;0.60;;;21.00;51.40;;;;;;5079601;28;20020;-65
2024/02/13 08:21:22;;;;;;;1.33;0.65;;;21.00;51.40;;;;;;5061652;28;20077;-64
2024/02/13 08:23:47;;;;;;;0.50;0.50;;;21.00;51.40;;;;;;5078209;28;20502;-65
2024/02/13 08:26:13;;;;;;;1.05;0.60;;;21.00;51.40;;;;;;5078045;28;20028;-65
2024/02/13 08:28:42;;;;;;;0.60;0.50;;;21.00;51.40;;;;;;5079751;28;20400;-65
2024/02/13 08:31:08;;;;;;;0.95;0.75;;;21.00;51.40;;;;;;5079275;28;20020;-64
2024/02/13 08:33:33;;;;;;;0.68;0.52;;;20.90;51.40;;;;;;5072956;28;20032;-64
2024/02/13 08:35:59;;;;;;;0.80;0.60;;;20.90;51.40;;;;;;5078490;28;20029;-63
2024/02/13 08:38:24;;;;;;;0.95;0.60;;;20.90;51.40;;;;;;5080344;28;20027;-64
2024/02/13 08:40:50;;;;;;;1.10;0.70;;;21.00;51.40;;;;;;5078913;28;20488;-63
2024/02/13 08:43:16;;;;;;;0.98;0.70;;;20.90;51.90;;;;;;5078141;28;20046;-63
2024/02/13 08:45:42;;;;;;;2.00;0.75;;;20.90;51.40;;;;;;5080777;28;20024;-64
2024/02/13 08:48:07;;;;;;;1.02;0.70;;;20.90;51.40;;;;;;5080606;28;20028;-63
2024/02/13 08:50:33;;;;;;;0.70;0.60;;;20.90;51.40;;;;;;5082147;28;20028;-63
2024/02/13 08:52:59;;;;;;;1.67;0.77;;;20.90;51.40;;;;;;5080357;28;20526;-63
2024/02/13 08:55:25;;;;;;;0.60;0.60;;;20.90;51.40;;;;;;5083329;28;20020;-63
2024/02/13 08:57:51;;;;;;;0.70;0.55;;;20.90;51.40;;;;;;5082200;28;20503;-63
2024/02/13 09:00:18;;;;;;;1.00;0.55;;;20.90;51.40;;;;;;5082286;28;20024;-63
2024/02/13 09:02:47;;;;;;;0.80;0.60;;;20.90;51.40;;;;;;5083688;28;20028;-63
2024/02/13 09:05:13;;;;;;;0.82;0.60;;;20.90;51.40;;;;;;5080781;28;20476;-63
2024/02/13 09:07:38;;;;;;;0.77;0.70;;;20.90;51.40;;;;;;5081757;28;20035;-63
2024/02/13 09:10:12;;;;;;;0.90;0.60;;;20.90;51.40;;;;;;5082221;28;20111;-63
2024/02/13 09:12:45;;;;;;;1.38;0.80;;;20.90;51.40;;;;;;5083105;28;20032;-63
2024/02/13 09:15:11;;;;;;;0.95;0.75;;;20.90;51.40;;;;;;5080748;28;20469;-63
2024/02/13 09:17:44;;;;;;;1.00;0.70;;;20.90;51.40;;;;;;5083267;28;20024;-64
2024/02/13 09:20:14;;;;;;;0.80;0.70;;;20.90;51.30;;;;;;5081772;28;20113;-63
2024/02/13 09:22:44;;;;;;;0.95;0.80;;;20.90;51.30;;;;;;5082349;28;20388;-64
2024/02/13 09:25:14;;;;;;;1.02;0.70;;;20.90;51.30;;;;;;5083367;28;20043;-63
2024/02/13 09:27:40;;;;;;;;;;;20.90;51.30;;;;;;5084701;28;20020;-65
2024/02/13 09:30:07;;;;;;;0.90;0.70;;;20.90;51.30;;;;;;5082371;28;19920;-65
2024/02/13 09:32:37;;;;;;;0.85;0.63;;;20.90;51.30;;;;;;5081851;28;20070;-65
2024/02/13 09:35:10;;;;;;;0.98;0.60;;;20.80;51.20;;;;;;5082471;28;20529;-65
2024/02/13 09:37:40;;;;;;;1.20;0.80;;;20.90;51.30;;;;;;5084911;28;20151;-64
2024/02/13 09:40:13;;;;;;;1.40;0.80;;;20.80;51.20;;;;;;5082721;28;20602;-65
2024/02/13 09:42:45;;;;;;;1.30;0.88;;;20.80;51.20;;;;;;5080833;28;20023;-64
2024/02/13 09:45:13;;;;;;;0.95;0.70;;;20.80;51.10;;;;;;5081379;28;20024;-65
2024/02/13 09:47:42;;;;;;;1.05;0.80;;;20.80;51.10;;;;;;5081683;28;20036;-66
2024/02/13 09:50:12;;;;;;;;;;;20.80;51.10;;;;;;5081781;28;20047;-66
2024/02/13 09:52:46;;;;;;;1.30;0.80;;;20.80;51.10;;;;;;5084466;28;20322;-66
2024/02/13 09:55:18;;;;;;;1.35;0.90;;;20.80;51.10;;;;;;5082315;28;20017;-66
2024/02/13 09:57:45;;;;;;;0.98;0.73;;;20.80;51.10;;;;;;5079106;28;20488;-65
2024/02/13 10:00:16;;;;;;;1.20;0.80;;;20.80;51.10;;;;;;5078063;28;20016;-65
2024/02/13 10:02:42;;;;;;;1.17;0.80;;;20.80;51.10;;;;;;5082459;28;20024;-65
2024/02/13 10:05:10;;;;;;;1.23;0.73;;;20.80;51.10;;;;;;5081739;28;20063;-66
2024/02/13 10:07:41;;;;;;;1.38;0.90;;;20.80;51.10;;;;;;5083813;28;20034;-66
2024/02/13 10:10:11;;;;;;;1.38;0.80;;;20.80;51.60;;;;;;5081229;28;20024;-65
2024/02/13 10:13:00;;;;;;;1.95;1.00;;;20.80;51.10;;;;;;5079855;28;20070;-66
2024/02/13 10:15:37;;;;;;;1.00;0.70;;;20.80;51.00;;;;;;5078305;28;20024;-66
2024/02/13 10:18:03;;;;;;;2.22;0.90;;;20.80;51.00;;;;;;5080632;28;20433;-65
2024/02/13 10:20:30;;;;;;;1.20;0.80;;;20.70;51.00;;;;;;5079748;28;20104;-67
2024/02/13 10:23:00;;;;;;;1.27;0.80;;;20.70;50.90;;;;;;5081678;28;20028;-67
2024/02/13 10:25:31;;;;;;;1.45;0.73;;;20.70;50.90;;;;;;5078507;28;20463;-71
2024/02/13 10:28:06;;;;;;;1.65;0.90;;;20.70;50.90;;;;;;5094820;28;20112;-68
2024/02/13 10:30:33;;;;;;;2.05;1.08;;;20.70;50.80;;;;;;5081124;28;20366;-68
2024/02/13 10:33:00;;;;;;;1.90;1.00;;;20.80;51.00;;;;;;5073103;28;20025;-67
2024/02/13 10:35:29;;;;;;;2.28;0.90;;;20.80;51.00;;;;;;5079561;28;20190;-67
2024/02/13 10:37:55;;;;;;;1.77;0.90;;;20.80;51.00;;;;;;5082182;28;20504;-64
2024/02/13 10:40:28;;;;;;;1.90;0.90;;;20.80;51.00;;;;;;5079989;28;20061;-64
2024/02/13 10:42:55;;;;;;;1.75;0.95;;;20.80;51.00;;;;;;5078885;28;20032;-64
2024/02/13 10:45:28;;;;;;;1.45;0.90;;;20.80;51.00;;;;;;5080139;28;20396;-63
2024/02/13 10:48:18;;;;;;;2.55;1.00;;;20.70;51.00;;;;;;5079121;28;20101;-64
2024/02/13 10:50:44;;;;;;;1.70;0.80;;;20.70;51.00;;;;;;5028521;28;20374;-64
2024/02/13 10:53:11;;;;;;;1.92;0.80;;;20.80;51.00;;;;;;5079600;28;20129;-66
2024/02/13 10:55:39;;;;;;;1.20;0.88;;;20.80;51.10;;;;;;5081098;28;20055;-64
2024/02/13 10:58:06;;;;;;;1.65;0.80;;;20.80;51.10;;;;;;5079951;28;20044;-67
2024/02/13 11:00:33;;;;;;;1.27;0.88;;;20.80;51.10;;;;;;5080365;28;20035;-66
2024/02/13 11:02:59;;;;;;;1.45;0.75;;;20.80;51.10;;;;;;5080224;28;20389;-67
2024/02/13 11:05:28;;;;;;;1.60;1.00;;;20.80;51.10;;;;;;5070629;28;20020;-66
2024/02/13 11:07:55;;;;;;;2.27;1.00;;;20.80;51.10;;;;;;5078797;28;20031;-67
2024/02/13 11:10:37;;;;;;;1.13;0.80;;;20.70;51.10;;;;;;5060736;28;20829;-67
2024/02/13 11:13:09;;;;;;;2.13;0.90;;;20.80;51.20;;;;;;5077815;28;20060;-66
2024/02/13 11:15:39;;;;;;;1.42;0.75;;;20.80;51.20;;;;;;5079731;28;20089;-67
2024/02/13 11:18:13;;;;;;;1.10;0.70;;;20.80;51.20;;;;;;5079810;28;20016;-67
2024/02/13 11:20:43;;;;;;;1.45;0.80;;;20.80;51.20;;;;;;5074051;28;20337;-67
2024/02/13 11:23:15;;;;;;;1.63;0.90;;;20.80;51.30;;;;;;5079664;28;20025;-66
2024/02/13 11:26:02;;;;;;;1.50;0.80;;;20.70;51.20;;;;;;5080276;28;20432;-66
2024/02/13 11:28:38;;;;;;;2.42;0.95;;;20.70;51.20;;;;;;5076100;28;20040;-66
2024/02/13 11:31:17;;;;;;;1.10;0.80;;;20.80;51.80;;;;;;5060352;28;20036;-66
2024/02/13 11:34:03;;;;;;;2.67;0.95;;;20.80;51.50;;;;;;5081543;28;20031;-66
2024/02/13 11:36:30;;;;;;;2.20;1.10;;;20.80;51.50;;;;;;5081593;28;20104;-66
2024/02/13 11:38:58;;;;;;;1.55;0.90;;;20.80;51.40;;;;;;5079753;28;20031;-66
2024/02/13 11:41:24;;;;;;;2.13;1.00;;;20.80;51.40;;;;;;5078930;28;20021;-66
2024/02/13 11:43:50;;;;;;;2.10;1.00;;;20.90;51.40;;;;;;5077545;28;20035;-66
2024/02/13 11:46:15;;;;;;;1.65;1.10;;;20.90;51.40;;;;;;5076881;28;20480;-64
2024/02/13 11:48:44;;;;;;;1.20;0.80;;;20.90;51.40;;;;;;5079672;28;20031;-63
2024/02/13 11:51:10;;;;;;;2.67;0.90;;;20.90;51.50;;;;;;5079754;28;20028;-63
2024/02/13 11:53:37;;;;;;;1.65;0.90;;;21.00;51.60;;;;;;5077709;28;20032;-63
2024/02/13 11:56:07;;;;;;;1.40;0.80;;;21.00;51.60;;;;;;5077028;28;20062;-64
2024/02/13 11:58:34;;;;;;;1.77;0.90;;;21.00;51.50;;;;;;5077485;28;20198;-63
2024/02/13 12:01:02;;;;;;;2.40;1.17;;;21.10;51.50;;;;;;5079811;28;20023;-63
2024/02/13 12:03:28;;;;;;;2.38;0.82;;;21.10;51.50;;;;;;5079990;28;20032;-63
2024/02/13 12:05:56;;;;;;;1.52;0.70;;;21.10;51.40;;;;;;5080339;28;20449;-66
2024/02/13 12:08:24;;;;;;;2.35;0.90;;;21.10;51.40;;;;;;5079173;28;20511;-66
2024/02/13 12:10:51;;;;;;;2.63;0.93;;;21.20;51.40;;;;;;5078512;28;20024;-66
2024/02/13 12:13:18;;;;;;;2.15;0.90;;;21.20;51.40;;;;;;5076407;28;20024;-66
2024/02/13 12:15:47;;;;;;;1.50;0.90;;;21.20;51.30;;;;;;5077130;28;20013;-66
2024/02/13 12:18:17;;;;;;;1.55;0.80;;;21.30;51.40;;;;;;5079045;28;20116;-66
2024/02/13 12:20:48;;;;;;;2.13;0.93;;;21.30;51.50;;;;;;5077113;28;20041;-66
2024/02/13 12:23:16;;;;;;;2.08;0.98;;;21.30;51.50;;;;;;5076896;28;20475;-65
2024/02/13 12:25:42;;;;;;;2.58;1.15;;;21.30;51.40;;;;;;5078332;28;20467;-67
2024/02/13 12:28:12;;;;;;;2.75;1.20;;;21.40;51.50;;;;;;5057926;28;20022;-66
2024/02/13 12:30:39;;;;;;;2.40;1.00;;;21.40;51.30;;;;;;5076646;28;20028;-66
2024/02/13 12:33:09;;;;;;;1.75;0.90;;;21.40;51.30;;;;;;5077563;28;20468;-66
2024/02/13 12:35:37;;;;;;;1.88;0.90;;;21.40;51.30;;;;;;5077840;28;20040;-66
2024/02/13 12:38:14;;;;;;;2.30;0.82;;;21.50;51.80;;;;;;5078207;28;20119;-66
2024/02/13 12:40:41;;;;;;;1.70;0.82;;;21.50;51.50;;;;;;5079187;28;20024;-66
2024/02/13 12:43:08;;;;;;;1.98;0.80;;;21.50;51.40;;;;;;5075505;28;20024;-65
2024/02/13 12:45:41;;;;;;;1.77;0.82;;;21.50;51.30;;;;;;5059216;28;20520;-66
2024/02/13 12:48:10;;;;;;;1.30;0.75;;;21.50;51.30;;;;;;5075973;28;20112;-66
2024/02/13 12:50:36;;;;;;;;;;;21.50;51.30;;;;;;5077810;28;20586;-66